Wetterdaten: aktuell Donnerstag, 20.09.2018 20:00
Datum Zeit Temp. I. Temp. A. Feuchte I. Feuchte A. Luftdruck Regen Wind Richtung Richtung Taupunkt Windchill
20.09.2018 20:00 26,9 C 22,6 C 31 % 53 % 1010 hPa 0,0 mm 0,0 km/h (0 Bft) S-SO45 155 12,5 C 22,6 C
20.09.2018 19:00 27,1 C 24,5 C 29 % 49 % 1010 hPa 0,0 mm 4,0 km/h (1 Bft) O 90 13,1 C 24,5 C
20.09.2018 18:00 27,1 C 25,4 C 30 % 47 % 1011 hPa 0,0 mm 3,6 km/h (1 Bft) S-SW45 200 13,3 C 25,4 C
20.09.2018 17:00 27,1 C 25,6 C 30 % 48 % 1012 hPa 0,0 mm 13,3 km/h (3 Bft) S 180 13,8 C 25,6 C
20.09.2018 16:00 27,0 C 25,3 C 30 % 47 % 1013 hPa 0,0 mm 13,7 km/h (3 Bft) S-SW45 200 13,2 C 25,3 C
20.09.2018 15:00 26,7 C 25,3 C 32 % 49 % 1013 hPa 0,0 mm 23,0 km/h (4 Bft) S 180 13,8 C 25,3 C
20.09.2018 14:00 26,6 C 24,6 C 33 % 52 % 1014 hPa 0,0 mm 9,0 km/h (2 Bft) N-NW45 335 14,1 C 24,6 C
20.09.2018 13:00 26,6 C 24,1 C 34 % 54 % 1014 hPa 0,0 mm 30,2 km/h (5 Bft) SW 225 14,2 C 24,1 C
20.09.2018 12:00 26,4 C 22,4 C 34 % 60 % 1014 hPa 0,0 mm 8,3 km/h (2 Bft) S 180 14,2 C 22,4 C
20.09.2018 11:00 26,1 C 20,3 C 34 % 67 % 1015 hPa 0,0 mm 16,6 km/h (3 Bft) S 180 14,0 C 20,3 C
20.09.2018 10:00 25,8 C 19,3 C 35 % 70 % 1015 hPa 0,0 mm 15,8 km/h (3 Bft) S-SW45 200 13,7 C 19,3 C
20.09.2018 09:00 25,7 C 17,4 C 35 % 75 % 1015 hPa 0,0 mm 5,0 km/h (1 Bft) SO 135 12,9 C 17,4 C
20.09.2018 08:00 25,4 C 15,3 C 36 % 78 % 1015 hPa 0,0 mm 5,4 km/h (1 Bft) S-SO45 155 11,5 C 15,3 C
20.09.2018 07:00 25,3 C 15,2 C 35 % 75 % 1015 hPa 0,0 mm 2,9 km/h (1 Bft) SO 135 10,8 C 15,2 C
20.09.2018 06:00 25,4 C 15,5 C 35 % 74 % 1015 hPa 0,0 mm 2,2 km/h (1 Bft) SO 135 10,9 C 15,5 C
20.09.2018 05:00 25,4 C 16,1 C 35 % 73 % 1015 hPa 0,0 mm 2,5 km/h (1 Bft) SO 135 11,3 C 16,1 C
20.09.2018 04:00 25,4 C 16,6 C 36 % 72 % 1015 hPa 0,0 mm 3,2 km/h (1 Bft) SO 135 11,5 C 16,6 C
20.09.2018 03:00 25,5 C 17,1 C 36 % 69 % 1015 hPa 0,0 mm 2,9 km/h (1 Bft) S-SO45 155 11,4 C 17,1 C
20.09.2018 02:00 25,5 C 17,6 C 36 % 67 % 1016 hPa 0,0 mm 2,9 km/h (1 Bft) S 180 11,4 C 17,6 C
20.09.2018 01:00 25,5 C 18,5 C 36 % 65 % 1016 hPa 0,0 mm 0,0 km/h (0 Bft) S-SW45 200 11,8 C 18,5 C
20.09.2018 00:00 25,6 C 19,2 C 36 % 63 % 1016 hPa 0,0 mm 0,0 km/h (0 Bft) S 180 12,0 C 19,2 C
19.09.2018 23:00 25,6 C 19,9 C 36 % 61 % 1016 hPa 0,0 mm 2,9 km/h (1 Bft) S-SW45 200 12,2 C 19,9 C
19.09.2018 22:00 25,7 C 21,0 C 36 % 57 % 1015 hPa 0,0 mm 2,5 km/h (1 Bft) W-SW45 245 12,1 C 21,0 C
19.09.2018 21:00 25,9 C 22,1 C 36 % 55 % 1015 hPa 0,0 mm 6,5 km/h (2 Bft) W-SW45 245 12,6 C 22,1 C
_ Min-Zeit 07:00 07:00 19:00 16:00 19:00 - 00:00 - - 07:00 07:00
Minimum _ 25,3 C 15,2 C 29 % 47 % 1010 hPa - 0,0 km/h (0 Bft) - - 10,8 C 15,2 C
_ Max-Zeit 17:00 17:00 21:00 08:00 23:00 21:00 13:00 - - 12:00 17:00
Maximum _ 27,1 C 25,6 C 36 % 78 % 1016 hPa 0,0 mm 30,2 km/h
SW (5 Bft)
- - 14,2 C 25,6 C
Durchschnitt _ 26,0 C 20,5 C 34 % 61 % 1014 hPa #0,0 mm 7,3 km/h (2 Bft) S - 12,6 C 20,5 C